createdAt,value
2019-03-18T00:02:28.010Z,78.25
2019-03-18T00:04:59.218Z,78.56
2019-03-18T00:07:30.476Z,78.52
2019-03-18T00:10:01.764Z,78.50
2019-03-18T00:12:33.142Z,78.52
2019-03-18T00:15:08.290Z,78.79
2019-03-18T00:17:39.561Z,78.67
2019-03-18T00:20:12.058Z,78.84
2019-03-18T00:22:43.422Z,78.72
2019-03-18T00:25:17.696Z,78.70
2019-03-18T00:27:48.983Z,78.57
2019-03-18T00:30:21.211Z,78.29
2019-03-18T00:32:52.469Z,78.10
2019-03-18T00:35:23.884Z,77.58
2019-03-18T00:37:55.166Z,77.64
2019-03-18T00:40:26.514Z,77.95
2019-03-18T00:42:57.817Z,77.92
2019-03-18T00:45:29.071Z,77.73
2019-03-18T00:48:00.483Z,77.03
2019-03-18T00:50:31.719Z,77.23
2019-03-18T00:53:03.008Z,77.74
2019-03-18T00:55:34.338Z,77.63
2019-03-18T00:58:05.706Z,77.79
2019-03-18T01:00:37.209Z,78.12
2019-03-18T01:03:08.510Z,78.07
2019-03-18T01:05:39.969Z,78.31
2019-03-18T01:08:12.417Z,77.95
2019-03-18T01:10:43.685Z,78.14
2019-03-18T01:13:15.015Z,77.79
2019-03-18T01:15:47.834Z,77.82
2019-03-18T01:18:19.213Z,77.94
2019-03-18T01:20:50.608Z,78.15
2019-03-18T01:23:21.961Z,78.21
2019-03-18T01:25:54.158Z,77.69
2019-03-18T01:28:25.589Z,78.09
2019-03-18T01:30:56.876Z,77.69
2019-03-18T01:33:28.272Z,77.51
2019-03-18T01:35:59.501Z,77.62
2019-03-18T01:38:30.761Z,77.45
2019-03-18T01:41:01.985Z,76.57
2019-03-18T01:43:33.257Z,77.00
2019-03-18T01:46:04.492Z,77.33
2019-03-18T01:48:35.845Z,76.27
2019-03-18T01:51:07.085Z,76.84
2019-03-18T01:53:38.354Z,76.96
2019-03-18T01:56:09.584Z,75.78
2019-03-18T01:58:40.804Z,75.68
2019-03-18T02:01:12.167Z,75.54
2019-03-18T02:03:43.504Z,75.84
2019-03-18T02:06:14.797Z,75.93
2019-03-18T02:08:46.231Z,76.18
2019-03-18T02:11:17.471Z,76.65
2019-03-18T02:13:48.842Z,76.72
2019-03-18T02:16:20.069Z,76.45
2019-03-18T02:18:51.600Z,76.51
2019-03-18T02:21:22.892Z,75.76
2019-03-18T02:23:54.167Z,75.68
2019-03-18T02:26:25.456Z,75.70
2019-03-18T02:29:06.471Z,75.85
2019-03-18T02:31:37.965Z,76.27
2019-03-18T02:34:09.260Z,77.04
2019-03-18T02:36:41.670Z,77.23
2019-03-18T02:39:12.893Z,77.68
2019-03-18T02:41:44.174Z,78.25
2019-03-18T02:44:15.505Z,78.42
2019-03-18T02:46:46.803Z,79.10
2019-03-18T02:49:18.089Z,79.32
2019-03-18T02:51:52.730Z,79.53
2019-03-18T02:54:22.409Z,80.07
2019-03-18T02:56:53.763Z,80.03
2019-03-18T02:59:24.995Z,79.65
2019-03-18T03:01:56.315Z,79.33
2019-03-18T03:04:27.899Z,79.44
2019-03-18T03:06:59.176Z,78.92
2019-03-18T03:09:31.250Z,79.23
2019-03-18T03:12:02.527Z,77.83
2019-03-18T03:14:33.809Z,78.26
2019-03-18T03:17:05.285Z,78.20
2019-03-18T03:19:36.574Z,78.05
2019-03-18T03:22:07.945Z,78.11
2019-03-18T03:24:40.197Z,78.28
2019-03-18T03:27:11.540Z,78.01
2019-03-18T03:29:42.771Z,78.18
2019-03-18T03:32:14.326Z,78.15
2019-03-18T03:34:45.619Z,77.54
2019-03-18T03:37:16.984Z,77.40
2019-03-18T03:39:48.299Z,77.71
2019-03-18T03:42:19.729Z,77.89
2019-03-18T03:44:51.015Z,77.93
2019-03-18T03:47:22.589Z,78.32
2019-03-18T03:49:53.817Z,78.62
2019-03-18T03:52:25.235Z,79.22
2019-03-18T03:54:56.592Z,79.78
2019-03-18T03:57:28.098Z,80.43
2019-03-18T03:59:59.541Z,80.81
2019-03-18T04:02:30.979Z,81.11
2019-03-18T04:05:02.346Z,81.32
2019-03-18T04:07:33.729Z,81.54
2019-03-18T04:10:16.674Z,81.51
2019-03-18T04:12:48.173Z,81.46
2019-03-18T04:15:19.574Z,81.21
2019-03-18T04:17:50.870Z,81.38
2019-03-18T04:20:22.136Z,81.37
2019-03-18T04:22:53.404Z,81.43
2019-03-18T04:25:24.637Z,81.43
2019-03-18T04:27:56.221Z,81.52
2019-03-18T04:30:27.440Z,81.13
2019-03-18T04:32:58.788Z,80.11
2019-03-18T04:35:30.104Z,79.67
2019-03-18T04:38:01.353Z,79.79
2019-03-18T04:40:32.644Z,79.14
2019-03-18T04:43:03.926Z,78.70
2019-03-18T04:45:35.210Z,77.37
2019-03-18T04:48:06.583Z,76.35
2019-03-18T04:50:37.913Z,73.93
2019-03-18T04:53:09.191Z,74.49
2019-03-18T04:55:40.559Z,74.46
2019-03-18T04:58:11.853Z,74.47
2019-03-18T05:00:43.083Z,74.04
2019-03-18T05:03:14.433Z,74.37
2019-03-18T05:05:45.659Z,73.78
2019-03-18T05:08:16.927Z,74.45
2019-03-18T05:10:49.017Z,74.30
2019-03-18T05:13:20.291Z,73.51
2019-03-18T05:15:51.593Z,74.42
2019-03-18T05:18:22.964Z,74.60
2019-03-18T05:20:54.253Z,74.02
2019-03-18T05:23:25.526Z,73.86
2019-03-18T05:25:56.758Z,74.33
2019-03-18T05:28:29.237Z,74.37
2019-03-18T05:31:00.699Z,74.16
2019-03-18T05:33:32.224Z,74.59
2019-03-18T05:36:03.603Z,74.54
2019-03-18T05:38:35.026Z,74.65
2019-03-18T05:41:06.257Z,74.72
2019-03-18T05:43:37.607Z,74.64
2019-03-18T05:46:10.785Z,74.33
2019-03-18T05:48:42.098Z,74.73
2019-03-18T05:51:13.327Z,74.09
2019-03-18T05:53:44.818Z,74.07
2019-03-18T05:56:16.128Z,74.90
2019-03-18T05:58:49.051Z,74.60
2019-03-18T06:01:20.349Z,74.52
2019-03-18T06:03:51.654Z,73.83
2019-03-18T06:06:28.720Z,74.02
2019-03-18T06:08:59.988Z,73.96
2019-03-18T06:11:31.275Z,74.11
2019-03-18T06:14:04.043Z,74.09
2019-03-18T06:16:35.270Z,74.18
2019-03-18T06:19:06.612Z,73.81
2019-03-18T06:21:37.903Z,73.08
2019-03-18T06:24:09.273Z,73.31
2019-03-18T06:26:40.746Z,73.16
2019-03-18T06:29:12.083Z,73.45
2019-03-18T06:31:43.386Z,73.86
2019-03-18T06:34:14.661Z,73.73
2019-03-18T06:36:45.962Z,73.80
2019-03-18T06:39:17.304Z,73.52
2019-03-18T06:41:48.906Z,73.49
2019-03-18T06:44:20.413Z,73.60
2019-03-18T06:46:51.759Z,73.36
2019-03-18T06:49:23.206Z,73.63
2019-03-18T06:51:54.400Z,73.09
2019-03-18T06:54:26.849Z,73.59
2019-03-18T06:56:58.055Z,73.44
2019-03-18T06:59:29.341Z,73.40
2019-03-18T07:02:00.665Z,72.97
2019-03-18T07:04:32.008Z,73.14
2019-03-18T07:07:04.384Z,72.88
2019-03-18T07:09:35.824Z,72.00
2019-03-18T07:12:07.067Z,72.15
2019-03-18T07:14:38.431Z,72.35
2019-03-18T07:17:09.701Z,72.79
2019-03-18T07:19:40.949Z,72.73
2019-03-18T07:22:12.267Z,72.78
2019-03-18T07:24:43.657Z,73.10
2019-03-18T07:27:14.997Z,72.43
2019-03-18T07:29:46.371Z,72.09
2019-03-18T07:32:17.589Z,72.78
2019-03-18T07:34:49.114Z,72.81
2019-03-18T07:37:20.339Z,72.22
2019-03-18T07:39:51.629Z,72.79
2019-03-18T07:42:22.957Z,72.83
2019-03-18T07:44:54.182Z,72.63
2019-03-18T07:47:26.176Z,72.60
2019-03-18T07:49:57.393Z,72.54
2019-03-18T07:52:28.772Z,73.29
2019-03-18T07:55:00.042Z,72.55
2019-03-18T07:57:32.766Z,72.56
2019-03-18T08:00:10.379Z,71.66
2019-03-18T08:02:41.839Z,71.59
2019-03-18T08:05:13.341Z,70.92
2019-03-18T08:07:44.792Z,70.55
2019-03-18T08:10:16.197Z,70.90
2019-03-18T08:12:47.468Z,69.58
2019-03-18T08:15:18.727Z,70.33
2019-03-18T08:17:50.127Z,70.70
2019-03-18T08:20:21.463Z,71.00
2019-03-18T08:22:52.710Z,71.20
2019-03-18T08:25:24.074Z,69.88
2019-03-18T08:27:55.362Z,69.27
2019-03-18T08:30:26.582Z,68.11
2019-03-18T08:32:57.917Z,67.73
2019-03-18T08:35:29.261Z,66.93
2019-03-18T08:38:00.573Z,66.86
2019-03-18T08:40:31.990Z,67.18
2019-03-18T08:43:03.342Z,67.69
2019-03-18T08:45:34.665Z,65.95
2019-03-18T08:48:06.094Z,67.01
2019-03-18T08:50:37.387Z,64.81
2019-03-18T08:53:08.675Z,65.54
2019-03-18T08:55:40.023Z,64.90
2019-03-18T08:58:11.249Z,65.60
2019-03-18T09:00:42.598Z,65.32
2019-03-18T09:03:13.852Z,65.12
2019-03-18T09:05:45.415Z,64.24
2019-03-18T09:08:16.641Z,65.72
2019-03-18T09:10:47.921Z,65.26
2019-03-18T09:13:21.127Z,63.74
2019-03-18T09:15:52.648Z,65.01
2019-03-18T09:18:24.028Z,64.76
2019-03-18T09:20:55.329Z,64.92
2019-03-18T09:23:26.635Z,63.03
2019-03-18T09:25:58.006Z,64.16
2019-03-18T09:28:29.364Z,64.26
2019-03-18T09:31:00.703Z,63.76
2019-03-18T09:33:31.970Z,63.58
2019-03-18T09:36:03.258Z,63.07
2019-03-18T09:38:34.551Z,62.72
2019-03-18T09:41:05.960Z,62.48
2019-03-18T09:43:37.253Z,62.50
2019-03-18T09:46:08.596Z,62.48
2019-03-18T09:48:39.823Z,61.45
2019-03-18T09:51:11.225Z,60.72
2019-03-18T09:53:42.445Z,60.44
2019-03-18T09:56:13.716Z,61.02
2019-03-18T09:58:45.006Z,60.27
2019-03-18T10:01:16.350Z,58.25
2019-03-18T10:03:47.688Z,59.17
2019-03-18T10:06:19.077Z,60.10
2019-03-18T10:08:50.464Z,59.63
2019-03-18T10:11:21.755Z,59.19
2019-03-18T10:13:52.956Z,58.64
2019-03-18T10:16:24.464Z,59.57
2019-03-18T10:18:55.789Z,59.69
2019-03-18T10:21:27.067Z,60.18
2019-03-18T10:23:58.301Z,60.88
2019-03-18T10:26:31.955Z,59.63
2019-03-18T10:29:03.282Z,59.82
2019-03-18T10:31:34.620Z,59.11
2019-03-18T10:34:05.905Z,59.09
2019-03-18T10:36:37.252Z,60.42
2019-03-18T10:39:08.544Z,60.85
2019-03-18T10:41:39.818Z,60.51
2019-03-18T10:44:11.043Z,61.42
2019-03-18T10:46:42.448Z,62.35
2019-03-18T10:49:13.734Z,60.41
2019-03-18T10:51:45.089Z,58.99
2019-03-18T10:54:16.308Z,57.72
2019-03-18T10:56:47.679Z,57.64
2019-03-18T10:59:19.048Z,55.29
2019-03-18T11:01:50.326Z,54.21
2019-03-18T11:04:21.547Z,55.44
2019-03-18T11:06:53.003Z,52.77
2019-03-18T11:09:24.362Z,53.00
2019-03-18T11:11:55.642Z,51.35
2019-03-18T11:14:27.121Z,52.96
2019-03-18T11:16:58.408Z,52.26
2019-03-18T11:19:29.711Z,52.33
2019-03-18T11:22:01.129Z,51.65
2019-03-18T11:24:32.348Z,53.21
2019-03-18T11:27:03.695Z,53.49
2019-03-18T11:29:34.907Z,52.69
2019-03-18T11:32:06.326Z,51.46
2019-03-18T11:34:37.559Z,50.69
2019-03-18T11:37:08.923Z,50.66
2019-03-18T11:39:40.477Z,49.03
2019-03-18T11:42:11.827Z,52.84
2019-03-18T11:44:43.056Z,48.95
2019-03-18T11:47:14.508Z,46.12
2019-03-18T11:49:45.853Z,47.92
2019-03-18T11:52:17.235Z,48.55
2019-03-18T11:54:48.645Z,49.61
2019-03-18T11:57:20.071Z,52.31
2019-03-18T11:59:51.378Z,52.25
2019-03-18T12:02:27.586Z,51.11
2019-03-18T12:04:57.619Z,52.02
2019-03-18T12:07:28.692Z,52.69
2019-03-18T12:10:00.018Z,50.43
2019-03-18T12:12:31.377Z,49.74
2019-03-18T12:15:02.616Z,49.96
2019-03-18T12:17:35.940Z,49.60
2019-03-18T12:20:23.664Z,50.24
2019-03-18T12:22:44.507Z,48.86
2019-03-18T12:25:17.400Z,50.54
2019-03-18T12:27:48.682Z,50.82
2019-03-18T12:30:21.607Z,47.59
2019-03-18T12:32:52.964Z,49.56
2019-03-18T12:35:24.340Z,46.54
2019-03-18T12:37:55.829Z,45.65
2019-03-18T12:40:27.089Z,47.43
2019-03-18T12:42:58.486Z,47.72
2019-03-18T12:45:29.809Z,48.83
2019-03-18T12:48:03.268Z,48.06
2019-03-18T12:50:54.536Z,47.64
2019-03-18T12:53:07.604Z,47.30
2019-03-18T12:55:38.916Z,47.66
2019-03-18T12:58:10.206Z,49.42
2019-03-18T13:00:41.608Z,46.62
2019-03-18T13:03:13.396Z,45.68
2019-03-18T13:05:44.770Z,43.25
2019-03-18T13:08:16.135Z,43.49
2019-03-18T13:10:47.454Z,42.59
2019-03-18T13:13:20.251Z,41.73
2019-03-18T13:15:51.525Z,46.45
2019-03-18T13:18:22.809Z,47.28
2019-03-18T13:21:07.049Z,45.48
2019-03-18T13:23:27.181Z,45.12
2019-03-18T13:25:58.535Z,47.48
2019-03-18T13:28:29.789Z,45.00
2019-03-18T13:31:01.062Z,45.99
2019-03-18T13:33:32.468Z,47.25
2019-03-18T13:36:03.790Z,46.19
2019-03-18T13:38:35.155Z,45.31
2019-03-18T13:41:06.722Z,46.34
2019-03-18T13:43:38.197Z,42.98
2019-03-18T13:46:09.730Z,42.65
2019-03-18T13:48:42.196Z,42.82
2019-03-18T13:51:20.795Z,44.51
2019-03-18T13:53:46.712Z,43.44
2019-03-18T13:56:18.125Z,44.60
2019-03-18T13:58:49.434Z,43.25
2019-03-18T14:01:20.741Z,45.18
2019-03-18T14:03:52.142Z,43.13
2019-03-18T14:06:23.461Z,43.61
2019-03-18T14:08:55.317Z,47.25
2019-03-18T14:11:26.866Z,55.64
2019-03-18T14:13:58.226Z,58.90
2019-03-18T14:16:29.730Z,61.84
2019-03-18T14:19:01.163Z,63.66
2019-03-18T14:21:34.161Z,63.75
2019-03-18T14:24:05.697Z,64.92
2019-03-18T14:26:37.125Z,62.75
2019-03-18T14:29:08.537Z,61.96
2019-03-18T14:31:39.820Z,63.19
2019-03-18T14:34:11.301Z,62.01
2019-03-18T14:36:42.587Z,50.66
2019-03-18T14:39:14.016Z,46.45
2019-03-18T14:41:45.505Z,42.62
2019-03-18T14:44:16.795Z,38.38
2019-03-18T14:46:48.032Z,40.32
2019-03-18T14:49:19.614Z,43.48
2019-03-18T14:51:51.689Z,41.59
2019-03-18T14:54:23.231Z,44.57
2019-03-18T14:56:54.587Z,45.98
2019-03-18T14:59:26.002Z,48.09
2019-03-18T15:01:57.307Z,48.49
2019-03-18T15:04:28.589Z,49.93
2019-03-18T15:06:59.996Z,47.83
2019-03-18T15:09:31.538Z,47.40
2019-03-18T15:12:02.778Z,47.55
2019-03-18T15:14:34.200Z,48.15
2019-03-18T15:17:05.611Z,46.61
2019-03-18T15:19:37.786Z,46.63
2019-03-18T15:22:09.360Z,45.59
2019-03-18T15:24:40.940Z,45.22
2019-03-18T15:27:12.377Z,45.38
2019-03-18T15:29:43.960Z,45.33
2019-03-18T15:32:15.382Z,45.57
2019-03-18T15:34:46.836Z,44.95
2019-03-18T15:37:19.049Z,42.41
2019-03-18T15:39:50.399Z,41.73
2019-03-18T15:42:21.893Z,42.03
2019-03-18T15:44:53.504Z,42.94
2019-03-18T15:47:24.935Z,44.75
2019-03-18T15:49:56.404Z,45.47
2019-03-18T15:52:27.706Z,46.98
2019-03-18T15:54:59.237Z,48.60
2019-03-18T15:57:30.745Z,50.11
2019-03-18T16:00:02.258Z,53.45
2019-03-18T16:02:33.727Z,55.86
2019-03-18T16:05:07.119Z,57.04
2019-03-18T16:07:39.689Z,57.39
2019-03-18T16:10:18.329Z,58.32
2019-03-18T16:12:49.851Z,57.42
2019-03-18T16:15:24.044Z,57.60
2019-03-18T16:17:55.279Z,57.89
2019-03-18T16:20:28.188Z,58.45
2019-03-18T16:23:01.118Z,58.66
2019-03-18T16:25:32.564Z,59.81
2019-03-18T16:28:03.965Z,60.06
2019-03-18T16:30:35.546Z,58.81
2019-03-18T16:33:06.864Z,59.46
2019-03-18T16:35:38.279Z,61.36
2019-03-18T16:38:09.597Z,60.18
2019-03-18T16:40:41.178Z,59.15
2019-03-18T16:43:12.570Z,58.88
2019-03-18T16:45:43.929Z,57.06
2019-03-18T16:48:15.190Z,55.17
2019-03-18T16:50:46.549Z,50.28
2019-03-18T16:53:17.844Z,49.76
2019-03-18T16:55:50.784Z,48.75
2019-03-18T16:58:22.225Z,50.37
2019-03-18T17:00:53.647Z,50.80
2019-03-18T17:03:37.108Z,49.57
2019-03-18T17:06:08.491Z,50.54
2019-03-18T17:08:39.854Z,51.47
2019-03-18T17:11:11.145Z,52.66
2019-03-18T17:13:43.456Z,53.45
2019-03-18T17:16:16.429Z,55.83
2019-03-18T17:18:47.667Z,56.05
2019-03-18T17:21:19.167Z,57.87
2019-03-18T17:23:50.386Z,58.89
2019-03-18T17:26:21.911Z,59.57
2019-03-18T17:28:53.276Z,59.15
2019-03-18T17:31:24.654Z,59.51
2019-03-18T17:33:55.968Z,60.56
2019-03-18T17:36:27.231Z,61.27
2019-03-18T17:38:58.544Z,61.26
2019-03-18T17:41:29.991Z,61.37
2019-03-18T17:44:01.328Z,61.91
2019-03-18T17:46:32.622Z,62.10
2019-03-18T17:49:03.975Z,62.91
2019-03-18T17:51:47.501Z,63.02
2019-03-18T17:54:20.364Z,62.69
2019-03-18T17:56:51.655Z,62.97
2019-03-18T17:59:23.162Z,63.26
2019-03-18T18:01:54.401Z,63.50
2019-03-18T18:04:26.748Z,63.70
2019-03-18T18:06:58.079Z,63.63
2019-03-18T18:09:29.500Z,63.81
2019-03-18T18:12:02.006Z,63.91
2019-03-18T18:14:36.966Z,64.04
2019-03-18T18:17:08.199Z,64.20
2019-03-18T18:19:39.727Z,64.36
2019-03-18T18:22:10.974Z,64.67
2019-03-18T18:24:42.214Z,64.91
2019-03-18T18:27:20.857Z,64.89
2019-03-18T18:29:52.211Z,65.00
2019-03-18T18:32:23.735Z,65.48
2019-03-18T18:34:55.194Z,64.93
2019-03-18T18:37:26.556Z,65.00
2019-03-18T18:39:58.039Z,65.27
2019-03-18T18:42:29.380Z,65.93
2019-03-18T18:45:00.995Z,66.08
2019-03-18T18:47:32.588Z,66.06
2019-03-18T18:50:05.606Z,66.39
2019-03-18T18:52:37.285Z,66.48
2019-03-18T18:55:13.364Z,66.65
2019-03-18T18:57:46.487Z,66.80
2019-03-18T19:00:24.939Z,66.79
2019-03-18T19:02:56.816Z,66.57
2019-03-18T19:05:28.366Z,66.54
2019-03-18T19:07:59.647Z,66.89
2019-03-18T19:10:31.020Z,67.33
2019-03-18T19:13:02.559Z,67.23
2019-03-18T19:15:41.470Z,67.22
2019-03-18T19:18:13.171Z,67.60
2019-03-18T19:20:44.400Z,67.90
2019-03-18T19:23:16.794Z,68.05
2019-03-18T19:25:49.273Z,68.19
2019-03-18T19:28:22.484Z,67.28
2019-03-18T19:30:53.982Z,67.24
2019-03-18T19:33:26.253Z,66.33
2019-03-18T19:36:00.776Z,66.73
2019-03-18T19:38:32.053Z,66.25
2019-03-18T19:41:15.848Z,66.39
2019-03-18T19:43:42.371Z,66.15
2019-03-18T19:46:14.037Z,66.32
2019-03-18T19:48:45.367Z,65.79
2019-03-18T19:51:16.641Z,65.31
2019-03-18T19:53:49.470Z,65.69
2019-03-18T19:56:21.045Z,65.68
2019-03-18T19:58:56.009Z,66.52
2019-03-18T20:01:27.282Z,68.01
2019-03-18T20:03:58.594Z,68.65
2019-03-18T20:06:30.117Z,69.09
2019-03-18T20:09:01.399Z,69.64
2019-03-18T20:11:33.507Z,70.50
2019-03-18T20:14:05.033Z,70.87
2019-03-18T20:16:36.271Z,71.21
2019-03-18T20:19:07.622Z,71.37
2019-03-18T20:21:38.932Z,71.66
2019-03-18T20:24:11.464Z,72.03
2019-03-18T20:26:42.877Z,72.29
2019-03-18T20:29:14.163Z,72.31
2019-03-18T20:31:45.457Z,72.70
2019-03-18T20:34:18.295Z,72.78
2019-03-18T20:36:49.641Z,72.84
2019-03-18T20:39:21.008Z,73.25
2019-03-18T20:41:52.307Z,73.50
2019-03-18T20:44:25.382Z,73.62
2019-03-18T20:46:57.933Z,73.06
2019-03-18T20:49:30.876Z,71.73
2019-03-18T20:52:02.410Z,71.19
2019-03-18T20:54:34.292Z,70.89
2019-03-18T20:57:05.819Z,71.58
2019-03-18T20:59:37.338Z,71.09
2019-03-18T21:02:08.841Z,70.77
2019-03-18T21:04:40.256Z,71.45
2019-03-18T21:07:11.831Z,71.12
2019-03-18T21:09:43.215Z,70.93
2019-03-18T21:12:15.895Z,70.89
2019-03-18T21:14:47.338Z,70.72
2019-03-18T21:17:18.997Z,70.81
2019-03-18T21:19:50.367Z,71.42
2019-03-18T21:22:21.594Z,70.74
2019-03-18T21:24:53.024Z,71.20
2019-03-18T21:27:24.360Z,71.82
2019-03-18T21:29:59.984Z,71.02
2019-03-18T21:32:31.266Z,71.06
2019-03-18T21:35:04.848Z,71.17
2019-03-18T21:37:36.069Z,70.72
2019-03-18T21:40:19.414Z,70.98
2019-03-18T21:42:51.798Z,72.27
2019-03-18T21:45:28.100Z,72.02
2019-03-18T21:47:59.324Z,72.08
2019-03-18T21:50:30.629Z,72.07
2019-03-18T21:53:01.931Z,72.07
2019-03-18T21:55:33.354Z,72.02
2019-03-18T21:58:04.787Z,71.87
2019-03-18T22:00:37.263Z,71.44
2019-03-18T22:03:11.398Z,71.49
2019-03-18T22:05:42.931Z,71.75
2019-03-18T22:08:20.077Z,71.66
2019-03-18T22:10:51.442Z,71.19
2019-03-18T22:13:22.662Z,71.18
2019-03-18T22:15:55.354Z,70.67
2019-03-18T22:18:30.503Z,71.10
2019-03-18T22:21:03.293Z,71.05
2019-03-18T22:23:34.589Z,71.94
2019-03-18T22:26:06.164Z,72.68
2019-03-18T22:28:37.478Z,73.00
2019-03-18T22:31:10.804Z,73.30
2019-03-18T22:33:42.110Z,73.35
2019-03-18T22:36:13.437Z,73.60
2019-03-18T22:38:45.728Z,73.97
2019-03-18T22:41:24.891Z,74.03
2019-03-18T22:43:56.264Z,74.04
2019-03-18T22:46:27.742Z,74.00
2019-03-18T22:48:59.968Z,74.25
2019-03-18T22:51:31.423Z,74.24
2019-03-18T22:54:02.656Z,74.38
2019-03-18T22:56:34.125Z,74.23
2019-03-18T22:59:05.504Z,74.44
2019-03-18T23:01:36.856Z,74.65
2019-03-18T23:04:08.361Z,74.96
2019-03-18T23:06:39.938Z,75.06
2019-03-18T23:09:11.245Z,75.31
2019-03-18T23:11:42.597Z,75.77
2019-03-18T23:14:13.933Z,75.72
2019-03-18T23:16:46.576Z,75.49
2019-03-18T23:19:18.094Z,75.75
2019-03-18T23:21:49.446Z,75.92
2019-03-18T23:24:20.668Z,75.94
2019-03-18T23:26:52.024Z,75.79
2019-03-18T23:29:23.333Z,75.71
2019-03-18T23:31:56.016Z,75.48
2019-03-18T23:34:28.312Z,75.23
2019-03-18T23:36:59.734Z,75.31
2019-03-18T23:39:31.028Z,75.32
2019-03-18T23:42:02.312Z,75.17
2019-03-18T23:44:33.635Z,75.29
2019-03-18T23:47:05.010Z,75.67
2019-03-18T23:49:36.311Z,75.96
2019-03-18T23:52:07.663Z,76.16
2019-03-18T23:54:38.884Z,76.16
2019-03-18T23:57:10.175Z,76.12
2019-03-18T23:59:41.396Z,76.08
